createdAt,value
2017-09-27T00:00:29.685Z,9.33
2017-09-27T00:02:58.945Z,9.20
2017-09-27T00:05:28.999Z,9.53
2017-09-27T00:07:59.019Z,9.50
2017-09-27T00:10:28.311Z,10.00
2017-09-27T00:12:57.566Z,9.03
2017-09-27T00:15:26.858Z,9.33
2017-09-27T00:17:56.126Z,10.03
2017-09-27T00:20:25.421Z,11.07
2017-09-27T00:22:54.679Z,12.00
2017-09-27T00:25:23.964Z,10.23
2017-09-27T00:27:53.247Z,10.13
2017-09-27T00:30:22.731Z,11.50
2017-09-27T00:32:52.016Z,9.67
2017-09-27T00:35:22.079Z,9.63
2017-09-27T00:37:52.202Z,10.43
2017-09-27T00:40:21.560Z,9.70
2017-09-27T00:42:51.708Z,10.63
2017-09-27T00:45:22.526Z,9.70
2017-09-27T00:47:51.809Z,10.73
2017-09-27T00:50:21.297Z,10.40
2017-09-27T00:52:50.581Z,10.10
2017-09-27T00:55:19.873Z,11.03
2017-09-27T00:57:49.155Z,9.73
2017-09-27T01:00:18.402Z,11.13
2017-09-27T01:02:47.714Z,10.37
2017-09-27T01:05:17.743Z,11.37
2017-09-27T01:07:47.034Z,10.53
2017-09-27T01:10:16.298Z,10.30
2017-09-27T01:12:45.556Z,10.77
2017-09-27T01:15:14.838Z,10.40
2017-09-27T01:17:44.871Z,11.03
2017-09-27T01:20:14.170Z,10.50
2017-09-27T01:22:43.425Z,11.70
2017-09-27T01:25:12.762Z,9.83
2017-09-27T01:27:42.042Z,10.73
2017-09-27T01:30:11.375Z,9.87
2017-09-27T01:32:40.650Z,11.00
2017-09-27T01:35:09.913Z,10.70
2017-09-27T01:37:39.182Z,8.90
2017-09-27T01:40:08.441Z,10.57
2017-09-27T01:42:37.720Z,9.70
2017-09-27T01:45:07.150Z,10.40
2017-09-27T01:47:36.463Z,10.20
2017-09-27T01:50:05.713Z,10.70
2017-09-27T01:52:35.154Z,10.20
2017-09-27T01:55:04.430Z,10.50
2017-09-27T01:57:33.701Z,10.30
2017-09-27T02:00:03.826Z,9.90
2017-09-27T02:02:33.226Z,11.07
2017-09-27T02:05:03.234Z,9.67
2017-09-27T02:07:32.498Z,10.33
2017-09-27T02:10:01.776Z,10.00
2017-09-27T02:12:31.074Z,10.43
2017-09-27T02:15:00.326Z,11.10
2017-09-27T02:17:30.342Z,9.40
2017-09-27T02:20:00.392Z,10.10
2017-09-27T02:22:30.415Z,11.47
2017-09-27T02:24:59.802Z,11.20
2017-09-27T02:27:29.823Z,11.00
2017-09-27T02:29:59.106Z,9.23
2017-09-27T02:32:28.399Z,10.80
2017-09-27T02:34:57.711Z,10.83
2017-09-27T02:37:26.988Z,10.43
2017-09-27T02:39:56.242Z,9.90
2017-09-27T02:42:25.504Z,9.87
2017-09-27T02:44:55.530Z,10.40
2017-09-27T02:47:25.682Z,8.27
2017-09-27T02:49:54.943Z,9.93
2017-09-27T02:52:25.169Z,9.03
2017-09-27T02:54:55.214Z,10.60
2017-09-27T02:57:24.468Z,10.10
2017-09-27T02:59:53.760Z,10.13
2017-09-27T03:02:23.014Z,9.37
2017-09-27T03:04:52.278Z,10.63
2017-09-27T03:07:21.573Z,10.00
2017-09-27T03:09:50.830Z,9.40
2017-09-27T03:12:20.200Z,10.87
2017-09-27T03:14:50.248Z,10.30
2017-09-27T03:17:19.517Z,10.17
2017-09-27T03:19:48.778Z,9.63
2017-09-27T03:22:18.239Z,10.20
2017-09-27T03:24:47.526Z,10.40
2017-09-27T03:27:17.550Z,11.00
2017-09-27T03:29:46.846Z,10.70
2017-09-27T03:32:16.099Z,10.40
2017-09-27T03:34:45.365Z,10.87
2017-09-27T03:37:14.753Z,9.97
2017-09-27T03:39:44.006Z,10.40
2017-09-27T03:42:13.308Z,10.17
2017-09-27T03:44:42.551Z,10.20
2017-09-27T03:47:12.591Z,10.77
2017-09-27T03:49:41.953Z,10.73
2017-09-27T03:52:11.243Z,10.30
2017-09-27T03:54:40.486Z,11.50
2017-09-27T03:57:09.733Z,9.30
2017-09-27T03:59:39.018Z,10.30
2017-09-27T04:02:08.302Z,10.00
2017-09-27T04:04:37.582Z,11.37
2017-09-27T04:07:07.641Z,9.10
2017-09-27T04:09:36.926Z,10.40
2017-09-27T04:12:06.197Z,10.73
2017-09-27T04:14:35.629Z,9.67
2017-09-27T04:17:04.906Z,12.17
2017-09-27T04:19:34.926Z,10.80
2017-09-27T04:22:04.338Z,10.97
2017-09-27T04:24:34.452Z,9.53
2017-09-27T04:27:03.702Z,9.73
2017-09-27T04:29:33.032Z,10.70
2017-09-27T04:32:02.362Z,9.80
2017-09-27T04:34:32.391Z,10.93
2017-09-27T04:37:01.674Z,10.90
2017-09-27T04:39:30.943Z,10.63
2017-09-27T04:42:00.375Z,10.30
2017-09-27T04:44:30.389Z,9.47
2017-09-27T04:46:59.809Z,10.37
2017-09-27T04:49:29.113Z,10.47
2017-09-27T04:51:58.387Z,9.50
2017-09-27T04:54:27.668Z,10.70
2017-09-27T04:56:56.945Z,10.23
2017-09-27T04:59:26.202Z,10.37
2017-09-27T05:01:55.481Z,10.27
2017-09-27T05:04:24.928Z,11.10
2017-09-27T05:06:54.170Z,8.90
2017-09-27T05:09:23.432Z,10.50
2017-09-27T05:11:52.714Z,11.47
2017-09-27T05:14:22.026Z,10.83
2017-09-27T05:16:51.295Z,10.13
2017-09-27T05:19:22.072Z,11.20
2017-09-27T05:21:51.353Z,10.90
2017-09-27T05:24:20.607Z,10.50
2017-09-27T05:26:49.892Z,10.63
2017-09-27T05:29:19.157Z,10.83
2017-09-27T05:31:49.281Z,10.60
2017-09-27T05:34:19.330Z,11.50
2017-09-27T05:36:48.650Z,9.97
2017-09-27T05:39:17.926Z,9.50
2017-09-27T05:41:47.969Z,11.27
2017-09-27T05:44:17.239Z,11.00
2017-09-27T05:46:46.535Z,12.07
2017-09-27T05:49:16.536Z,11.40
2017-09-27T05:51:45.941Z,11.40
2017-09-27T05:54:15.993Z,12.33
2017-09-27T05:56:45.257Z,11.40
2017-09-27T05:59:14.516Z,11.00
2017-09-27T06:01:43.834Z,10.07
2017-09-27T06:04:13.087Z,11.20
2017-09-27T06:06:42.364Z,11.57
2017-09-27T06:09:12.384Z,11.00
2017-09-27T06:11:41.778Z,9.57
2017-09-27T06:14:11.806Z,9.30
2017-09-27T06:16:41.087Z,10.43
2017-09-27T06:19:10.378Z,10.00
2017-09-27T06:21:39.654Z,9.83
2017-09-27T06:24:09.101Z,8.77
2017-09-27T06:26:39.150Z,9.20
2017-09-27T06:29:08.437Z,10.80
2017-09-27T06:31:37.709Z,8.93
2017-09-27T06:34:08.562Z,8.67
2017-09-27T06:36:38.599Z,9.10
2017-09-27T06:39:08.070Z,8.30
2017-09-27T06:41:37.325Z,7.93
2017-09-27T06:44:06.797Z,7.57
2017-09-27T06:46:36.990Z,8.70
2017-09-27T06:49:06.321Z,9.50
2017-09-27T06:51:35.622Z,9.20
2017-09-27T06:54:04.961Z,7.27
2017-09-27T06:56:34.494Z,7.17
2017-09-27T06:59:03.802Z,7.30
2017-09-27T07:01:33.163Z,7.40
2017-09-27T07:04:02.471Z,6.50
2017-09-27T07:06:31.775Z,6.20
2017-09-27T07:09:01.203Z,7.30
2017-09-27T07:11:30.747Z,6.50
2017-09-27T07:14:00.066Z,6.20
2017-09-27T07:16:30.122Z,7.97
2017-09-27T07:18:59.455Z,6.40
2017-09-27T07:21:28.751Z,7.30
2017-09-27T07:23:58.039Z,8.03
2017-09-27T07:26:27.391Z,7.77
2017-09-27T07:28:57.468Z,7.40
2017-09-27T07:31:26.828Z,8.07
2017-09-27T07:33:56.891Z,9.03
2017-09-27T07:36:26.209Z,8.57
2017-09-27T07:38:55.585Z,7.83
2017-09-27T07:41:24.874Z,7.50
2017-09-27T07:43:54.394Z,9.17
2017-09-27T07:46:23.687Z,8.27
2017-09-27T07:48:53.025Z,7.60
2017-09-27T07:51:22.328Z,9.20
2017-09-27T07:53:51.626Z,9.40
2017-09-27T07:56:20.955Z,9.13
2017-09-27T07:58:51.014Z,9.60
2017-09-27T08:01:20.341Z,10.00
2017-09-27T08:03:49.657Z,10.00
2017-09-27T08:06:19.742Z,10.23
2017-09-27T08:08:49.083Z,9.70
2017-09-27T08:11:19.879Z,9.50
2017-09-27T08:13:49.197Z,9.07
2017-09-27T08:16:18.531Z,10.50
2017-09-27T08:18:48.051Z,9.47
2017-09-27T08:21:18.145Z,10.30
2017-09-27T08:23:47.638Z,9.83
2017-09-27T08:26:17.727Z,9.50
2017-09-27T08:28:47.139Z,8.73
2017-09-27T08:31:16.491Z,9.50
2017-09-27T08:33:45.832Z,9.60
2017-09-27T08:36:15.132Z,9.80
2017-09-27T08:38:44.474Z,8.90
2017-09-27T08:41:14.452Z,8.70
2017-09-27T08:43:43.872Z,9.73
2017-09-27T08:46:13.214Z,8.90
2017-09-27T08:48:42.528Z,9.90
2017-09-27T08:51:12.631Z,11.47
2017-09-27T08:53:42.040Z,10.13
2017-09-27T08:56:11.398Z,10.20
2017-09-27T08:58:40.847Z,9.93
2017-09-27T09:01:10.137Z,11.27
2017-09-27T09:03:39.506Z,10.53
2017-09-27T09:06:08.845Z,8.73
2017-09-27T09:08:38.423Z,10.10
2017-09-27T09:11:07.730Z,10.90
2017-09-27T09:13:37.061Z,9.70
2017-09-27T09:16:06.402Z,10.30
2017-09-27T09:18:36.595Z,9.30
2017-09-27T09:21:05.901Z,11.33
2017-09-27T09:23:35.245Z,11.10
2017-09-27T09:26:04.694Z,10.47
2017-09-27T09:28:34.034Z,10.70
2017-09-27T09:31:03.334Z,10.10
2017-09-27T09:33:32.683Z,10.40
2017-09-27T09:36:02.018Z,9.90
2017-09-27T09:38:31.344Z,11.57
2017-09-27T09:41:00.679Z,11.80
2017-09-27T09:43:30.017Z,10.77
2017-09-27T09:45:59.353Z,10.40
2017-09-27T09:48:28.685Z,10.77
2017-09-27T09:50:57.979Z,9.90
2017-09-27T09:53:27.298Z,10.90
2017-09-27T09:55:56.878Z,10.63
2017-09-27T09:58:26.200Z,10.20
2017-09-27T10:00:55.522Z,10.57
2017-09-27T10:03:24.840Z,11.70
2017-09-27T10:05:54.758Z,10.80
2017-09-27T10:08:24.283Z,9.17
2017-09-27T10:10:53.623Z,10.63
2017-09-27T10:13:22.946Z,11.03
2017-09-27T10:15:52.322Z,10.60
2017-09-27T10:18:21.677Z,10.50
2017-09-27T10:20:50.971Z,11.27
2017-09-27T10:23:21.043Z,9.50
2017-09-27T10:25:50.529Z,11.67
2017-09-27T10:28:20.001Z,11.27
2017-09-27T10:30:50.063Z,11.03
2017-09-27T10:33:19.324Z,11.10
2017-09-27T10:35:48.582Z,11.13
2017-09-27T10:38:17.874Z,11.00
2017-09-27T10:40:47.154Z,10.70
2017-09-27T10:43:16.440Z,10.07
2017-09-27T10:45:45.723Z,10.30
2017-09-27T10:48:14.973Z,9.80
2017-09-27T10:50:44.255Z,10.07
2017-09-27T10:53:13.529Z,11.70
2017-09-27T10:55:43.586Z,11.63
2017-09-27T10:58:12.978Z,10.17
2017-09-27T11:00:42.265Z,13.57
2017-09-27T11:03:12.297Z,10.50
2017-09-27T11:05:41.577Z,11.77
2017-09-27T11:08:10.898Z,12.37
2017-09-27T11:10:40.216Z,11.83
2017-09-27T11:13:09.590Z,12.07
2017-09-27T11:15:39.619Z,12.60
2017-09-27T11:18:08.902Z,13.07
2017-09-27T11:20:38.195Z,11.57
2017-09-27T11:23:07.639Z,13.40
2017-09-27T11:25:36.910Z,13.73
2017-09-27T11:28:06.949Z,13.77
2017-09-27T11:30:36.326Z,14.10
2017-09-27T11:33:05.598Z,15.10
2017-09-27T11:35:35.531Z,14.53
2017-09-27T11:38:04.798Z,15.17
2017-09-27T11:40:34.081Z,14.13
2017-09-27T11:43:03.338Z,15.80
2017-09-27T11:45:32.675Z,15.33
2017-09-27T11:48:02.005Z,14.07
2017-09-27T11:50:31.296Z,16.77
2017-09-27T11:53:00.591Z,14.97
2017-09-27T11:55:29.867Z,15.97
2017-09-27T11:57:59.311Z,16.27
2017-09-27T12:00:28.762Z,15.87
2017-09-27T12:02:58.275Z,16.60
2017-09-27T12:05:28.334Z,18.90
2017-09-27T12:07:57.585Z,17.03
2017-09-27T12:10:26.851Z,16.60
2017-09-27T12:12:56.150Z,16.10
2017-09-27T12:15:25.421Z,19.53
2017-09-27T12:17:54.703Z,17.23
2017-09-27T12:20:24.730Z,17.83
2017-09-27T12:22:54.794Z,15.60
2017-09-27T12:25:24.057Z,18.80
2017-09-27T12:27:54.101Z,19.50
2017-09-27T12:30:23.549Z,18.40
2017-09-27T12:32:52.820Z,16.50
2017-09-27T12:35:22.112Z,17.10
2017-09-27T12:37:51.391Z,18.73
2017-09-27T12:40:20.667Z,18.17
2017-09-27T12:42:50.719Z,17.10
2017-09-27T12:45:20.088Z,17.40
2017-09-27T12:47:50.890Z,16.43
2017-09-27T12:50:20.400Z,17.40
2017-09-27T12:52:49.671Z,18.30
2017-09-27T12:55:19.181Z,18.07
2017-09-27T12:57:48.554Z,18.13
2017-09-27T13:00:17.810Z,17.23
2017-09-27T13:02:47.165Z,17.67
2017-09-27T13:05:16.550Z,18.23
2017-09-27T13:07:46.677Z,17.57
2017-09-27T13:10:16.785Z,17.43
2017-09-27T13:12:46.928Z,16.93
2017-09-27T13:15:16.217Z,18.70
2017-09-27T13:17:45.648Z,16.93
2017-09-27T13:20:14.894Z,19.13
2017-09-27T13:22:44.156Z,16.83
2017-09-27T13:25:13.413Z,17.40
2017-09-27T13:27:43.466Z,17.37
2017-09-27T13:30:12.735Z,18.63
2017-09-27T13:32:42.006Z,19.10
2017-09-27T13:35:11.256Z,18.70
2017-09-27T13:37:40.550Z,18.47
2017-09-27T13:40:10.582Z,18.50
2017-09-27T13:42:39.844Z,17.53
2017-09-27T13:45:09.098Z,19.57
2017-09-27T13:47:38.357Z,15.63
2017-09-27T13:50:08.504Z,17.60
2017-09-27T13:52:38.514Z,19.20
2017-09-27T13:55:08.742Z,17.93
2017-09-27T13:57:37.997Z,17.13
2017-09-27T14:00:08.013Z,17.20
2017-09-27T14:02:37.299Z,17.37
2017-09-27T14:05:06.561Z,13.70
2017-09-27T14:07:35.846Z,15.60
2017-09-27T14:10:05.130Z,13.80
2017-09-27T14:12:34.449Z,11.93
2017-09-27T14:15:04.511Z,13.53
2017-09-27T14:17:33.778Z,14.90
2017-09-27T14:20:03.910Z,15.23
2017-09-27T14:22:33.135Z,11.20
2017-09-27T14:25:02.410Z,10.53
2017-09-27T14:27:31.718Z,12.90
2017-09-27T14:30:01.829Z,11.93
2017-09-27T14:32:31.445Z,11.33
2017-09-27T14:35:02.179Z,11.23
2017-09-27T14:37:31.461Z,9.80
2017-09-27T14:40:00.704Z,12.63
2017-09-27T14:42:29.979Z,10.10
2017-09-27T14:44:59.226Z,9.83
2017-09-27T14:47:28.559Z,8.70
2017-09-27T14:49:57.928Z,9.60
2017-09-27T14:52:27.240Z,11.53
2017-09-27T14:54:56.713Z,12.47
2017-09-27T14:57:25.955Z,12.27
2017-09-27T14:59:55.238Z,9.90
2017-09-27T15:02:24.505Z,11.53
2017-09-27T15:04:53.883Z,11.90
2017-09-27T15:07:23.985Z,14.53
2017-09-27T15:09:54.037Z,12.40
2017-09-27T15:12:23.302Z,12.00
2017-09-27T15:14:52.586Z,11.03
2017-09-27T15:17:22.041Z,9.63
2017-09-27T15:19:51.277Z,11.10
2017-09-27T15:22:20.539Z,8.53
2017-09-27T15:24:49.949Z,8.80
2017-09-27T15:27:19.376Z,9.90
2017-09-27T15:29:48.632Z,9.07
2017-09-27T15:32:17.954Z,10.13
2017-09-27T15:34:47.218Z,8.80
2017-09-27T15:37:16.674Z,10.20
2017-09-27T15:39:45.944Z,11.27
2017-09-27T15:42:16.011Z,9.30
2017-09-27T15:44:45.380Z,9.40
2017-09-27T15:47:14.630Z,9.80
2017-09-27T15:49:43.920Z,10.20
2017-09-27T15:52:13.209Z,10.43
2017-09-27T15:54:42.486Z,10.50
2017-09-27T15:57:11.789Z,10.50
2017-09-27T15:59:41.091Z,10.13
2017-09-27T16:02:10.362Z,9.70
2017-09-27T16:04:39.615Z,11.10
2017-09-27T16:07:08.893Z,10.77
2017-09-27T16:09:38.382Z,12.03
2017-09-27T16:12:08.445Z,11.30
2017-09-27T16:14:37.802Z,11.43
2017-09-27T16:17:07.908Z,11.70
2017-09-27T16:19:37.950Z,11.03
2017-09-27T16:22:07.285Z,11.13
2017-09-27T16:24:36.570Z,11.57
2017-09-27T16:27:05.815Z,11.90
2017-09-27T16:29:36.598Z,11.27
2017-09-27T16:32:06.145Z,12.07
2017-09-27T16:34:35.515Z,10.93
2017-09-27T16:37:04.779Z,11.47
2017-09-27T16:39:34.827Z,11.67
2017-09-27T16:42:04.089Z,12.30
2017-09-27T16:44:34.336Z,11.30
2017-09-27T16:47:04.379Z,11.13
2017-09-27T16:49:33.771Z,14.20
2017-09-27T16:52:03.069Z,13.70
2017-09-27T16:54:32.373Z,13.70
2017-09-27T16:57:01.654Z,12.03
2017-09-27T16:59:31.698Z,12.17
2017-09-27T17:02:00.972Z,10.73
2017-09-27T17:04:30.272Z,10.67
2017-09-27T17:06:59.569Z,11.30
2017-09-27T17:09:29.006Z,12.30
2017-09-27T17:11:58.290Z,11.20
2017-09-27T17:14:28.423Z,11.13
2017-09-27T17:16:57.708Z,11.40
2017-09-27T17:19:27.737Z,10.93
2017-09-27T17:21:57.011Z,10.80
2017-09-27T17:24:26.308Z,11.60
2017-09-27T17:26:55.561Z,11.97
2017-09-27T17:29:24.829Z,11.73
2017-09-27T17:31:54.874Z,11.13
2017-09-27T17:34:24.125Z,11.77
2017-09-27T17:36:53.470Z,11.47
2017-09-27T17:39:22.721Z,11.40
2017-09-27T17:41:52.062Z,11.00
2017-09-27T17:44:21.471Z,13.00
2017-09-27T17:46:51.494Z,11.77
2017-09-27T17:49:20.870Z,12.67
2017-09-27T17:51:50.898Z,13.13
2017-09-27T17:54:20.162Z,12.43
2017-09-27T17:56:50.326Z,11.90
2017-09-27T17:59:19.593Z,11.50
2017-09-27T18:01:48.870Z,13.03
2017-09-27T18:04:23.625Z,12.70
2017-09-27T18:06:58.485Z,11.93
2017-09-27T18:09:33.968Z,11.40
2017-09-27T18:12:22.097Z,11.00
2017-09-27T18:17:55.378Z,12.60
2017-09-27T18:20:24.630Z,10.87
2017-09-27T18:22:53.915Z,11.63
2017-09-27T18:25:23.260Z,13.43
2017-09-27T18:27:52.538Z,12.50
2017-09-27T18:30:21.970Z,11.73
2017-09-27T18:32:51.259Z,12.97
2017-09-27T18:35:20.526Z,12.50
2017-09-27T18:37:49.793Z,13.40
2017-09-27T18:40:19.261Z,12.27
2017-09-27T18:42:48.528Z,12.97
2017-09-27T18:45:17.812Z,12.97
2017-09-27T18:47:47.844Z,11.63
2017-09-27T18:50:17.129Z,10.90
2017-09-27T18:52:46.402Z,12.70
2017-09-27T18:55:15.702Z,12.23
2017-09-27T18:57:44.987Z,12.87
2017-09-27T19:00:14.302Z,14.07
2017-09-27T19:02:43.565Z,12.57
2017-09-27T19:05:12.857Z,11.90
2017-09-27T19:07:42.175Z,12.37
2017-09-27T19:10:11.646Z,12.10
2017-09-27T19:12:41.683Z,14.17
2017-09-27T19:15:11.012Z,11.83
2017-09-27T19:17:40.292Z,12.43
2017-09-27T19:20:09.581Z,12.40
2017-09-27T19:22:38.967Z,12.63
2017-09-27T19:25:09.036Z,12.63
2017-09-27T19:27:38.351Z,12.13
2017-09-27T19:30:08.503Z,12.90
2017-09-27T19:32:39.486Z,11.43
2017-09-27T19:35:08.764Z,13.17
2017-09-27T19:37:38.808Z,12.83
2017-09-27T19:40:08.073Z,11.13
2017-09-27T19:42:37.347Z,12.50
2017-09-27T19:45:06.822Z,12.50
2017-09-27T19:47:36.173Z,15.13
2017-09-27T19:50:05.451Z,12.37
2017-09-27T19:52:34.718Z,12.60
2017-09-27T19:55:04.018Z,11.70
2017-09-27T19:57:33.308Z,11.33
2017-09-27T20:00:02.620Z,11.70
2017-09-27T20:02:31.893Z,13.97
2017-09-27T20:05:01.936Z,13.73
2017-09-27T20:07:31.208Z,12.20
2017-09-27T20:10:00.510Z,11.87
2017-09-27T20:12:30.430Z,13.47
2017-09-27T20:14:59.720Z,12.80
2017-09-27T20:17:29.013Z,11.50
2017-09-27T20:19:58.287Z,12.80
2017-09-27T20:22:27.578Z,12.03
2017-09-27T20:24:56.863Z,12.90
2017-09-27T20:27:26.129Z,13.47
2017-09-27T20:29:56.258Z,12.00
2017-09-27T20:32:26.377Z,13.03
2017-09-27T20:34:56.410Z,12.00
2017-09-27T20:37:25.698Z,10.80
2017-09-27T20:39:55.103Z,13.50
2017-09-27T20:42:25.129Z,12.77
2017-09-27T20:44:54.438Z,12.30
2017-09-27T20:47:23.699Z,12.63
2017-09-27T20:49:54.486Z,12.33
2017-09-27T20:52:23.762Z,11.33
2017-09-27T20:54:53.084Z,11.47
2017-09-27T20:57:22.349Z,12.37
2017-09-27T20:59:51.646Z,10.57
2017-09-27T21:02:20.935Z,12.73
2017-09-27T21:04:50.271Z,11.43
2017-09-27T21:07:19.607Z,12.10
2017-09-27T21:09:48.870Z,10.80
2017-09-27T21:12:18.609Z,11.23
2017-09-27T21:14:47.845Z,10.70
2017-09-27T21:17:17.112Z,10.60
2017-09-27T21:19:46.391Z,11.60
2017-09-27T21:22:15.730Z,12.30
2017-09-27T21:24:45.510Z,11.17
2017-09-27T21:27:15.457Z,10.20
2017-09-27T21:29:44.938Z,11.20
2017-09-27T21:32:14.196Z,11.03
2017-09-27T21:34:43.520Z,11.47
2017-09-27T21:37:12.898Z,10.67
2017-09-27T21:39:42.174Z,10.33
2017-09-27T21:42:11.451Z,10.47
2017-09-27T21:44:40.749Z,10.90
2017-09-27T21:47:10.019Z,10.67
2017-09-27T21:49:39.310Z,13.40
2017-09-27T21:52:08.604Z,10.63
2017-09-27T21:54:37.904Z,10.90
2017-09-27T21:57:07.235Z,11.37
2017-09-27T21:59:36.729Z,10.33
2017-09-27T22:02:06.773Z,11.10
2017-09-27T22:04:36.056Z,12.40
2017-09-27T22:07:06.111Z,11.10
2017-09-27T22:09:35.556Z,11.47
2017-09-27T22:12:05.575Z,10.83
2017-09-27T22:14:34.863Z,11.43
2017-09-27T22:17:04.352Z,10.90
2017-09-27T22:19:33.589Z,11.67
2017-09-27T22:22:03.649Z,10.63
2017-09-27T22:24:32.946Z,12.13
2017-09-27T22:27:02.228Z,11.30
2017-09-27T22:29:32.330Z,10.60
2017-09-27T22:32:01.612Z,10.67
2017-09-27T22:34:30.924Z,9.83
2017-09-27T22:37:00.300Z,10.40
2017-09-27T22:39:29.603Z,10.33
2017-09-27T22:41:58.882Z,10.63
2017-09-27T22:44:28.206Z,10.60
2017-09-27T22:46:57.461Z,9.33
2017-09-27T22:49:27.517Z,11.40
2017-09-27T22:51:56.800Z,11.37
2017-09-27T22:54:26.089Z,10.80
2017-09-27T22:56:55.345Z,11.77
2017-09-27T22:59:24.641Z,11.93
2017-09-27T23:01:53.903Z,11.33
2017-09-27T23:04:23.157Z,11.33
2017-09-27T23:06:52.577Z,11.70
2017-09-27T23:09:21.988Z,11.57
2017-09-27T23:11:52.108Z,11.70
2017-09-27T23:14:22.135Z,11.97
2017-09-27T23:16:51.424Z,11.73
2017-09-27T23:19:20.728Z,11.93
2017-09-27T23:21:50.001Z,12.07
2017-09-27T23:24:19.283Z,10.30
2017-09-27T23:26:48.559Z,12.67
2017-09-27T23:29:17.863Z,13.63
2017-09-27T23:31:47.137Z,12.57
2017-09-27T23:34:17.227Z,12.57
2017-09-27T23:36:46.509Z,12.10
2017-09-27T23:39:15.773Z,12.33
2017-09-27T23:41:45.052Z,12.87
2017-09-27T23:44:14.333Z,12.37
2017-09-27T23:46:43.611Z,11.53
2017-09-27T23:49:13.083Z,12.90
2017-09-27T23:51:43.110Z,12.80
2017-09-27T23:54:12.742Z,13.83
2017-09-27T23:56:41.997Z,13.27
2017-09-27T23:59:12.054Z,13.27
